Time;durP1;ratioP1;P1;durP2;ratioP2;P2;SDS_P1;SDS_P2;PMS_P1;PMS_P2;Temp;Humidity;BMP_temperature;BMP_pressure;BME280_temperature;BME280_humidity;BME280_pressure;Samples;Min_cycle;Max_cycle;Signal;HPM_P1;HPM_P2
2021/06/17 13:30:54;;;;;;;10.38;3.40;;;27.00;71.80;;;;;;5307587;27;20544;-57
2021/06/17 13:33:27;;;;;;;7.78;2.97;;;26.90;73.70;;;;;;5308402;27;20191;-55
2021/06/17 13:35:59;;;;;;;8.10;3.30;;;27.10;73.60;;;;;;5308748;28;20572;-55
2021/06/17 13:38:31;;;;;;;6.43;3.63;;;27.10;73.20;;;;;;5307960;27;20205;-58
2021/06/17 13:41:04;;;;;;;7.15;3.63;;;27.30;72.80;;;;;;5308083;27;20190;-55
2021/06/17 13:43:37;;;;;;;5.15;3.00;;;27.20;72.10;;;;;;5308297;28;20718;-56
2021/06/17 13:46:08;;;;;;;6.53;3.10;;;27.00;73.10;;;;;;5308145;27;20203;-57
2021/06/17 13:48:43;;;;;;;5.13;2.88;;;27.00;72.90;;;;;;5307904;28;20191;-62
2021/06/17 13:51:15;;;;;;;8.93;3.08;;;27.00;73.40;;;;;;5307025;27;20196;-58
2021/06/17 13:53:50;;;;;;;5.97;3.15;;;27.10;73.40;;;;;;5307419;28;20248;-65
2021/06/17 13:56:29;;;;;;;12.35;3.47;;;27.20;73.40;;;;;;5306900;28;20243;-64
2021/06/17 13:59:03;;;;;;;7.28;3.17;;;27.20;72.80;;;;;;5306899;27;20264;-57
2021/06/17 14:01:35;;;;;;;9.32;3.47;;;27.10;73.10;;;;;;5307100;27;20213;-60
2021/06/17 14:04:13;;;;;;;7.85;3.30;;;27.00;73.20;;;;;;5307132;28;20323;-54
2021/06/17 14:06:46;;;;;;;3.33;2.80;;;26.90;72.90;;;;;;5307122;27;20187;-54
2021/06/17 14:09:18;;;;;;;5.03;2.95;;;26.90;72.50;;;;;;5306875;27;20701;-53
2021/06/17 14:11:50;;;;;;;5.75;3.28;;;27.00;74.10;;;;;;5305313;28;20187;-58
2021/06/17 14:14:22;;;;;;;7.03;3.40;;;27.10;74.10;;;;;;5306796;27;20621;-60
2021/06/17 14:16:55;;;;;;;6.05;3.03;;;27.20;73.10;;;;;;5306499;27;20195;-62
2021/06/17 14:19:27;;;;;;;6.35;3.55;;;27.20;72.00;;;;;;5306811;27;20278;-64
2021/06/17 14:21:59;;;;;;;6.30;3.10;;;27.30;72.60;;;;;;5304674;27;20270;-61
2021/06/17 14:24:31;;;;;;;6.55;2.92;;;27.40;72.70;;;;;;5306381;27;20209;-65
2021/06/17 14:27:04;;;;;;;5.13;3.20;;;27.50;73.00;;;;;;5306302;27;20195;-62
2021/06/17 14:29:36;;;;;;;4.43;3.35;;;27.40;72.50;;;;;;5305995;27;20250;-63
2021/06/17 14:32:09;;;;;;;3.83;3.20;;;27.30;73.70;;;;;;5305954;27;20657;-64
2021/06/17 14:34:40;;;;;;;7.63;3.20;;;27.20;74.20;;;;;;5306288;27;20214;-65
2021/06/17 14:37:13;;;;;;;6.25;3.25;;;27.30;74.00;;;;;;5306215;27;20665;-62
2021/06/17 14:39:45;;;;;;;7.05;3.88;;;27.30;74.10;;;;;;5305896;27;20206;-65
2021/06/17 14:42:28;;;;;;;6.00;3.15;;;27.20;74.20;;;;;;5291692;28;20191;-60
2021/06/17 14:45:00;;;;;;;8.50;3.58;;;27.20;73.70;;;;;;5291911;28;20187;-63
2021/06/17 14:47:33;;;;;;;6.93;3.47;;;27.10;74.60;;;;;;5292434;27;20200;-62
2021/06/17 14:50:06;;;;;;;4.40;3.05;;;27.10;74.80;;;;;;5292742;28;20216;-61
2021/06/17 14:52:38;;;;;;;5.22;3.25;;;27.20;74.80;;;;;;5293220;28;20569;-63
2021/06/17 14:55:10;;;;;;;5.40;3.60;;;27.30;75.30;;;;;;5292994;28;20208;-64
2021/06/17 14:58:01;;;;;;;5.65;3.25;;;27.30;74.30;;;;;;5293324;28;20218;-62
2021/06/17 15:00:33;;;;;;;6.20;3.40;;;27.30;74.20;;;;;;5292966;28;20192;-64
2021/06/17 15:03:05;;;;;;;8.05;4.20;;;27.20;74.30;;;;;;5293369;28;20188;-64
2021/06/17 15:05:37;;;;;;;8.60;4.07;;;27.20;74.70;;;;;;5293806;28;20208;-64
2021/06/17 15:08:09;;;;;;;6.97;3.80;;;27.20;74.80;;;;;;5291729;28;20195;-65
2021/06/17 15:10:41;;;;;;;6.00;3.50;;;27.20;75.20;;;;;;5292748;28;20223;-65
2021/06/17 15:13:12;;;;;;;4.82;3.40;;;27.20;74.00;;;;;;5292436;28;20274;-65
2021/06/17 15:15:44;;;;;;;4.43;3.63;;;27.20;74.30;;;;;;5292753;28;20199;-67
2021/06/17 15:18:16;;;;;;;6.65;3.70;;;27.30;74.90;;;;;;5292493;27;20196;-67
2021/06/17 15:20:48;;;;;;;5.97;4.10;;;27.40;75.00;;;;;;5292589;27;20216;-66
2021/06/17 15:27:08;;;;;;;18.75;5.70;;;27.50;74.70;;;;;;5292153;28;20625;-67
2021/06/17 15:32:35;;;;;;;6.10;3.88;;;27.30;75.10;;;;;;5307959;27;20531;-68
2021/06/17 15:35:08;;;;;;;7.22;4.10;;;27.40;75.50;;;;;;5308565;27;20194;-58
2021/06/17 15:37:40;;;;;;;8.15;4.15;;;27.30;74.70;;;;;;5308362;27;20210;-60
2021/06/17 15:40:12;;;;;;;12.00;4.30;;;27.30;74.30;;;;;;5307903;27;20230;-66
2021/06/17 15:42:44;;;;;;;10.30;3.95;;;27.30;75.10;;;;;;5308319;27;20189;-65
2021/06/17 15:45:17;;;;;;;5.65;4.18;;;27.40;75.80;;;;;;5308418;27;20202;-62
2021/06/17 15:47:49;;;;;;;6.65;4.07;;;27.40;75.20;;;;;;5308025;28;20191;-66
2021/06/17 15:50:21;;;;;;;5.97;4.18;;;27.40;75.50;;;;;;5307612;28;20187;-65
2021/06/17 15:52:53;;;;;;;12.05;4.10;;;27.20;74.60;;;;;;5307534;27;20198;-67
2021/06/17 15:55:25;;;;;;;6.28;3.60;;;27.20;75.00;;;;;;5308063;27;20590;-69
2021/06/17 15:58:00;;;;;;;5.85;3.75;;;27.20;74.50;;;;;;5308250;27;20199;-67
2021/06/17 16:00:32;;;;;;;6.97;3.55;;;27.20;75.00;;;;;;5307187;27;20203;-66
2021/06/17 16:03:08;;;;;;;13.55;6.38;;;27.20;74.60;;;;;;5307501;27;20214;-66
2021/06/17 16:05:41;;;;;;;8.95;5.00;;;27.20;75.40;;;;;;5307589;27;20191;-64
2021/06/17 16:08:14;;;;;;;11.65;4.65;;;27.30;75.30;;;;;;5307950;27;20214;-66
2021/06/17 16:10:46;;;;;;;10.15;4.25;;;27.30;74.70;;;;;;5307015;27;20223;-63
2021/06/17 16:13:21;;;;;;;8.68;4.38;;;27.30;74.80;;;;;;5307447;28;20203;-66
2021/06/17 16:15:53;;;;;;;10.85;4.40;;;27.30;74.70;;;;;;5291319;27;20205;-63
2021/06/17 16:18:25;;;;;;;8.00;4.20;;;27.20;74.90;;;;;;5325541;27;20202;-62
2021/06/17 16:20:57;;;;;;;8.63;4.18;;;27.20;75.30;;;;;;5328736;27;20197;-68
2021/06/17 16:23:29;;;;;;;7.47;4.43;;;27.20;75.20;;;;;;5328609;27;20187;-64
2021/06/17 16:26:02;;;;;;;7.72;3.50;;;27.20;75.60;;;;;;5328783;27;20210;-61
2021/06/17 16:28:34;;;;;;;5.65;3.28;;;27.30;76.10;;;;;;5328843;27;20187;-60
2021/06/17 16:31:06;;;;;;;6.35;3.33;;;27.10;76.80;;;;;;5326865;27;20245;-66
2021/06/17 16:33:38;;;;;;;6.22;3.60;;;27.00;76.60;;;;;;5299776;28;20195;-71
2021/06/17 16:36:11;;;;;;;4.78;3.33;;;26.90;76.70;;;;;;5305679;27;20195;-65
2021/06/17 16:38:43;;;;;;;10.43;3.70;;;26.90;77.70;;;;;;5304443;28;20191;-66
2021/06/17 16:41:15;;;;;;;7.65;3.40;;;26.90;78.20;;;;;;5304901;28;20187;-71
2021/06/17 16:43:47;;;;;;;6.35;3.33;;;27.00;77.80;;;;;;5292362;27;20192;-65
2021/06/17 16:46:20;;;;;;;5.07;3.13;;;26.90;77.50;;;;;;5292135;28;20572;-68
2021/06/17 16:48:52;;;;;;;6.22;3.63;;;26.80;77.00;;;;;;5275410;28;20184;-64
2021/06/17 16:51:38;;;;;;;5.72;3.20;;;26.70;77.40;;;;;;5289807;28;20214;-64
2021/06/17 16:54:10;;;;;;;5.43;3.53;;;26.70;78.60;;;;;;5291931;28;20195;-77
2021/06/17 16:56:42;;;;;;;5.57;3.08;;;26.60;79.30;;;;;;5291758;28;20215;-69
2021/06/17 16:59:14;;;;;;;5.03;2.95;;;26.60;80.10;;;;;;5292117;28;20191;-68
2021/06/17 17:01:46;;;;;;;7.20;3.33;;;26.60;80.20;;;;;;5291180;28;20203;-68
2021/06/17 17:04:18;;;;;;;6.38;2.92;;;26.60;79.00;;;;;;5291453;28;20191;-71
2021/06/17 17:06:50;;;;;;;4.55;3.05;;;26.50;79.60;;;;;;5290585;28;20196;-64
2021/06/17 17:09:23;;;;;;;4.40;2.55;;;26.40;80.90;;;;;;5291226;28;20203;-70
2021/06/17 17:11:56;;;;;;;8.45;2.75;;;26.30;80.00;;;;;;5289821;28;20215;-71
2021/06/17 17:14:31;;;;;;;4.43;2.45;;;26.20;80.90;;;;;;5290266;28;20256;-70
2021/06/17 17:17:04;;;;;;;6.80;2.80;;;26.20;82.10;;;;;;5288649;28;20573;-69
2021/06/17 17:19:39;;;;;;;10.80;2.95;;;26.20;82.50;;;;;;5289478;28;20190;-64
2021/06/17 17:22:12;;;;;;;9.35;3.05;;;26.10;82.90;;;;;;5290484;28;20195;-68
2021/06/17 17:24:45;;;;;;;4.45;2.60;;;26.00;83.60;;;;;;5291307;28;20562;-71
2021/06/17 17:27:18;;;;;;;4.90;2.65;;;26.00;84.60;;;;;;5290924;28;20192;-68
2021/06/17 17:29:50;;;;;;;5.25;2.70;;;25.90;83.60;;;;;;5290677;28;20200;-66
2021/06/17 17:35:44;;;;;;;7.55;2.40;;;25.80;84.70;;;;;;5177250;23;20240;-66
2021/06/17 17:38:16;;;;;;;6.55;2.58;;;25.70;85.40;;;;;;5142156;28;20211;-66
2021/06/17 17:40:48;;;;;;;5.93;3.08;;;25.70;84.60;;;;;;5146668;28;20208;-66
2021/06/17 17:43:20;;;;;;;4.53;2.65;;;25.60;84.80;;;;;;5146705;28;20204;-70
2021/06/17 17:45:52;;;;;;;8.18;2.65;;;25.60;86.70;;;;;;5147012;28;20227;-68
2021/06/17 17:48:24;;;;;;;3.53;2.67;;;25.50;87.40;;;;;;5147496;28;20196;-64
2021/06/17 17:50:56;;;;;;;5.15;2.90;;;25.40;88.20;;;;;;5147422;28;20256;-64
2021/06/17 17:53:27;;;;;;;8.57;2.78;;;25.40;89.90;;;;;;5146347;28;20215;-63
2021/06/17 17:55:59;;;;;;;6.13;2.42;;;25.30;90.20;;;;;;5146324;28;20601;-66
2021/06/17 17:58:32;;;;;;;5.97;2.70;;;25.30;90.40;;;;;;5148659;28;20211;-75
2021/06/17 18:01:03;;;;;;;8.32;2.97;;;25.20;90.80;;;;;;5148648;28;20243;-63
2021/06/17 18:03:40;;;;;;;9.68;3.03;;;25.10;90.90;;;;;;5146975;28;20197;-64
2021/06/17 18:06:12;;;;;;;10.30;2.72;;;25.10;91.70;;;;;;5148668;28;20200;-65
2021/06/17 18:08:44;;;;;;;7.15;2.90;;;25.00;92.10;;;;;;5148473;28;20260;-81
2021/06/17 18:11:17;;;;;;;10.90;3.08;;;24.90;92.00;;;;;;5147827;28;20239;-82
2021/06/17 18:13:54;;;;;;;6.68;2.72;;;24.80;92.20;;;;;;5152775;28;20260;-65
2021/06/17 18:16:37;;;;;;;5.25;2.80;;;24.80;92.70;;;;;;5151719;28;20204;-67
2021/06/17 18:19:10;;;;;;;6.03;2.75;;;24.70;92.90;;;;;;5150953;28;20220;-68
2021/06/17 18:24:17;;;;;;;16.73;3.88;;;24.50;93.70;;;;;;5124394;29;20733;-63
2021/06/17 18:26:50;;;;;;;4.60;2.90;;;24.50;94.10;;;;;;5111385;29;20585;-78
2021/06/17 18:29:22;;;;;;;6.13;3.10;;;24.40;94.60;;;;;;5128283;29;20213;-74
2021/06/17 18:31:54;;;;;;;8.73;3.17;;;24.30;95.10;;;;;;5111636;29;20552;-65
2021/06/17 18:34:28;;;;;;;7.10;3.00;;;24.30;95.80;;;;;;5126697;29;20296;-63
2021/06/17 18:37:00;;;;;;;11.45;3.58;;;24.20;96.40;;;;;;5126591;29;20244;-65
2021/06/17 18:39:33;;;;;;;8.55;3.75;;;24.10;96.70;;;;;;5126188;29;20204;-64
2021/06/17 18:42:06;;;;;;;10.90;4.05;;;24.00;97.10;;;;;;5127426;29;20197;-64
2021/06/17 18:44:38;;;;;;;10.65;3.53;;;23.90;97.80;;;;;;5127161;29;20215;-65
2021/06/17 18:47:14;;;;;;;5.45;3.10;;;23.80;98.40;;;;;;5126889;29;20193;-70
2021/06/17 18:49:52;;;;;;;5.55;3.00;;;23.80;98.80;;;;;;5127198;29;20613;-68
2021/06/17 18:52:23;;;;;;;5.13;2.90;;;23.70;99.50;;;;;;5123708;29;20582;-73
2021/06/17 18:54:55;;;;;;;6.20;3.00;;;23.60;99.90;;;;;;5106245;29;20206;-66
2021/06/17 18:57:27;;;;;;;6.90;2.95;;;23.50;99.90;;;;;;5106389;29;20555;-71
2021/06/17 19:00:00;;;;;;;3.03;2.72;;;23.40;99.90;;;;;;5106279;29;20213;-71
2021/06/17 19:02:31;;;;;;;8.15;3.20;;;23.30;99.90;;;;;;5107163;29;20221;-72
2021/06/17 19:05:04;;;;;;;6.55;3.13;;;23.20;99.90;;;;;;5105240;29;20194;-70
2021/06/17 19:07:36;;;;;;;3.58;3.10;;;23.10;99.90;;;;;;5106511;29;20208;-69
2021/06/17 19:10:08;;;;;;;6.57;3.30;;;23.00;99.90;;;;;;5106093;29;20212;-68
2021/06/17 19:12:41;;;;;;;11.77;3.58;;;22.90;99.90;;;;;;5105890;29;20319;-59
2021/06/17 19:15:13;;;;;;;6.65;3.00;;;22.80;99.90;;;;;;5106423;29;20204;-59
2021/06/17 19:17:46;;;;;;;4.60;3.10;;;22.70;99.90;;;;;;5106048;29;20210;-58
2021/06/17 19:20:20;;;;;;;4.57;2.90;;;22.70;99.90;;;;;;5105987;29;20209;-57
2021/06/17 19:22:53;;;;;;;6.18;2.78;;;22.60;99.90;;;;;;5105882;29;20768;-58
2021/06/17 19:25:27;;;;;;;7.35;3.10;;;22.50;99.90;;;;;;5106201;29;20590;-59
2021/06/17 19:27:59;;;;;;;4.93;3.10;;;22.50;99.90;;;;;;5106094;29;20585;-58
2021/06/17 19:30:32;;;;;;;4.63;3.10;;;22.40;99.90;;;;;;5106278;29;20197;-57
2021/06/17 19:33:06;;;;;;;6.43;3.13;;;22.30;99.90;;;;;;5105113;29;20245;-55
2021/06/17 19:35:39;;;;;;;4.78;3.08;;;22.20;99.90;;;;;;5106117;29;20204;-54
2021/06/17 19:38:11;;;;;;;5.38;2.72;;;22.20;99.90;;;;;;5105923;29;20193;-59
2021/06/17 19:40:43;;;;;;;5.57;2.63;;;22.10;99.90;;;;;;5105741;29;20575;-58
2021/06/17 19:43:16;;;;;;;7.85;2.90;;;22.00;99.90;;;;;;5106768;29;20198;-65
2021/06/17 19:45:53;;;;;;;8.73;3.03;;;21.90;99.90;;;;;;5105952;29;20210;-65
2021/06/17 19:48:25;;;;;;;4.93;3.17;;;21.80;99.90;;;;;;5105971;29;20201;-65
2021/06/17 19:50:59;;;;;;;4.97;2.35;;;21.70;99.90;;;;;;5105592;29;20194;-66
2021/06/17 19:53:33;;;;;;;5.18;2.90;;;21.60;99.90;;;;;;5105766;29;20233;-67
2021/06/17 19:56:13;;;;;;;5.95;3.00;;;21.60;99.90;;;;;;5105851;29;20217;-66
2021/06/17 19:58:46;;;;;;;5.30;2.90;;;21.50;99.90;;;;;;5088627;29;20201;-67
2021/06/17 20:01:20;;;;;;;7.50;2.70;;;21.40;99.90;;;;;;5105643;29;20201;-66
2021/06/17 20:03:52;;;;;;;9.00;3.22;;;21.30;99.90;;;;;;5105735;29;20213;-66
2021/06/17 20:06:24;;;;;;;5.43;3.30;;;21.30;99.90;;;;;;5105787;29;20209;-65
2021/06/17 20:08:56;;;;;;;5.60;3.13;;;21.20;99.90;;;;;;5105665;29;20218;-67
2021/06/17 20:11:28;;;;;;;8.52;3.10;;;21.10;99.90;;;;;;5105530;29;20601;-68
2021/06/17 20:14:00;;;;;;;5.80;2.97;;;21.10;99.90;;;;;;5105727;29;20552;-65
2021/06/17 20:16:32;;;;;;;4.50;3.05;;;21.00;99.90;;;;;;5105851;29;20634;-66
2021/06/17 20:19:04;;;;;;;6.22;3.38;;;21.00;99.90;;;;;;5108739;29;20623;-66
2021/06/17 20:21:36;;;;;;;6.82;3.50;;;20.90;99.90;;;;;;5109439;29;20533;-66
2021/06/17 20:24:08;;;;;;;6.43;3.33;;;20.90;99.90;;;;;;5105491;29;20245;-64
2021/06/17 20:26:40;;;;;;;8.95;3.45;;;20.90;99.90;;;;;;5038358;29;20197;-63
2021/06/17 20:29:13;;;;;;;6.13;3.30;;;20.80;99.90;;;;;;5070705;29;20208;-65
2021/06/17 20:31:45;;;;;;;7.63;3.35;;;20.80;99.90;;;;;;5108542;29;20298;-66
2021/06/17 20:34:18;;;;;;;6.10;3.05;;;20.70;99.90;;;;;;5108735;29;20248;-65
2021/06/17 21:12:11;;;;;;;5.20;2.63;;;20.50;99.90;;;;;;5122606;23;20236;-66
2021/06/17 21:14:44;;;;;;;5.90;2.50;;;20.50;99.90;;;;;;5128384;29;20209;-64
2021/06/17 21:17:15;;;;;;;6.95;2.53;;;20.50;99.90;;;;;;5128591;29;20683;-64
2021/06/17 21:19:47;;;;;;;4.13;2.25;;;20.50;99.90;;;;;;5128482;29;20209;-69
2021/06/17 21:22:19;;;;;;;5.97;2.60;;;20.50;99.90;;;;;;5128668;29;20668;-66
2021/06/17 21:24:51;;;;;;;4.65;2.20;;;20.50;99.90;;;;;;5128311;29;20212;-69
2021/06/17 21:27:23;;;;;;;3.95;2.05;;;20.40;99.90;;;;;;5128158;29;20205;-67
2021/06/17 21:29:55;;;;;;;3.67;2.25;;;20.40;99.90;;;;;;5128348;28;20601;-67
2021/06/17 21:32:27;;;;;;;6.85;2.03;;;20.40;99.90;;;;;;5128240;29;20232;-65
2021/06/17 21:34:59;;;;;;;5.45;2.33;;;20.40;99.90;;;;;;5128474;29;20224;-65
2021/06/17 21:37:31;;;;;;;3.90;2.42;;;20.40;99.90;;;;;;5128110;29;20216;-66
2021/06/17 21:40:04;;;;;;;4.38;2.10;;;20.50;99.90;;;;;;5128282;29;20216;-67
2021/06/17 21:42:36;;;;;;;9.02;2.70;;;20.50;99.90;;;;;;5128209;29;20216;-68
2021/06/17 21:45:08;;;;;;;2.53;1.60;;;20.50;99.90;;;;;;5128202;29;20664;-68
2021/06/17 21:47:41;;;;;;;4.72;2.15;;;20.50;99.90;;;;;;5128133;29;20214;-68
2021/06/17 21:50:13;;;;;;;3.70;2.00;;;20.60;99.90;;;;;;5128075;29;20687;-68
2021/06/17 21:52:45;;;;;;;2.30;1.88;;;20.60;99.90;;;;;;5127731;29;20634;-67
2021/06/17 21:55:19;;;;;;;5.82;2.10;;;20.60;99.90;;;;;;5127754;29;20694;-68
2021/06/17 21:57:58;;;;;;;5.38;2.10;;;20.60;99.90;;;;;;5125040;29;20208;-66
2021/06/17 22:00:31;;;;;;;5.22;2.22;;;20.60;99.90;;;;;;5127790;29;20271;-69
2021/06/17 22:03:03;;;;;;;3.38;2.22;;;20.70;99.90;;;;;;5127804;29;20588;-69
2021/06/17 22:05:37;;;;;;;4.15;2.15;;;20.70;99.90;;;;;;5127692;29;20668;-65
2021/06/17 22:08:09;;;;;;;4.72;2.13;;;20.70;99.90;;;;;;5110791;29;20568;-69
2021/06/17 22:10:41;;;;;;;3.53;2.25;;;20.70;99.90;;;;;;5127096;29;20201;-68
2021/06/17 22:13:13;;;;;;;4.28;2.25;;;20.70;99.90;;;;;;5127020;29;20607;-66
2021/06/17 22:15:45;;;;;;;5.32;2.30;;;20.70;99.90;;;;;;5126116;29;20208;-67
2021/06/17 22:18:18;;;;;;;4.30;2.30;;;20.70;99.90;;;;;;5126140;29;20217;-70
2021/06/17 22:20:50;;;;;;;3.65;2.70;;;20.60;99.90;;;;;;5109010;29;20220;-68
2021/06/17 22:23:22;;;;;;;4.35;2.50;;;20.70;99.90;;;;;;5122904;29;20247;-68
2021/06/17 22:25:54;;;;;;;3.65;2.05;;;20.60;99.90;;;;;;5126833;29;20217;-66
2021/06/17 22:28:26;;;;;;;3.47;2.33;;;20.70;99.90;;;;;;5127067;29;20201;-67
2021/06/17 22:30:58;;;;;;;3.95;2.40;;;20.60;99.90;;;;;;5127099;29;20598;-66
2021/06/17 22:33:30;;;;;;;4.60;2.03;;;20.60;99.90;;;;;;5126896;29;20275;-67
2021/06/17 22:36:03;;;;;;;3.85;2.10;;;20.60;99.90;;;;;;5126924;29;20580;-67
2021/06/17 22:38:35;;;;;;;3.83;2.10;;;20.60;99.90;;;;;;5124933;29;20209;-68
2021/06/17 22:41:07;;;;;;;4.85;2.10;;;20.50;99.90;;;;;;5126406;28;20554;-65
2021/06/17 22:43:39;;;;;;;5.70;2.22;;;20.50;99.90;;;;;;5126871;29;20572;-67
2021/06/17 22:46:11;;;;;;;3.67;2.10;;;20.50;99.90;;;;;;5109743;29;20557;-67
2021/06/17 22:48:43;;;;;;;4.40;2.08;;;20.40;99.90;;;;;;5126829;29;20236;-66
2021/06/17 22:51:15;;;;;;;2.67;2.08;;;20.40;99.90;;;;;;5126700;29;20201;-67
2021/06/17 22:53:48;;;;;;;4.45;2.25;;;20.40;99.90;;;;;;5126619;29;20228;-69
2021/06/17 22:56:20;;;;;;;6.93;2.45;;;20.40;99.90;;;;;;5126625;29;20588;-65
2021/06/17 22:58:52;;;;;;;3.55;2.30;;;20.40;99.90;;;;;;5126512;29;20205;-68
2021/06/17 23:01:24;;;;;;;4.10;2.45;;;20.30;99.90;;;;;;5126594;29;20205;-65
2021/06/17 23:03:57;;;;;;;4.72;2.40;;;20.30;99.90;;;;;;5126361;29;20200;-65
2021/06/17 23:06:28;;;;;;;3.78;2.10;;;20.30;99.90;;;;;;5126829;29;20535;-66
2021/06/17 23:09:00;;;;;;;3.25;1.98;;;20.20;99.90;;;;;;5126905;29;20209;-65
2021/06/17 23:11:33;;;;;;;3.60;1.92;;;20.20;99.90;;;;;;5126371;29;20236;-68
2021/06/17 23:14:05;;;;;;;3.67;2.10;;;20.10;99.90;;;;;;5126385;29;20313;-67
2021/06/17 23:16:37;;;;;;;6.07;2.17;;;20.10;99.90;;;;;;5126803;29;20209;-64
2021/06/17 23:19:09;;;;;;;2.47;2.00;;;20.00;99.90;;;;;;5126796;29;20625;-65
2021/06/17 23:21:41;;;;;;;4.93;2.08;;;20.00;99.90;;;;;;5126838;29;20259;-65
2021/06/17 23:24:13;;;;;;;3.50;2.15;;;20.00;99.90;;;;;;5126702;29;20201;-65
2021/06/17 23:26:45;;;;;;;4.20;2.08;;;19.90;99.90;;;;;;5126371;29;20633;-65
2021/06/17 23:29:17;;;;;;;4.82;2.15;;;19.90;99.90;;;;;;5126632;29;20216;-65
2021/06/17 23:31:49;;;;;;;3.70;2.00;;;19.90;99.90;;;;;;5126472;29;20205;-66
2021/06/17 23:34:26;;;;;;;5.85;2.55;;;19.80;99.90;;;;;;5126628;29;20208;-65
2021/06/17 23:36:58;;;;;;;4.43;2.20;;;19.70;99.90;;;;;;5126691;29;20707;-66
2021/06/17 23:39:29;;;;;;;4.68;4.00;;;19.70;99.90;;;;;;5126535;29;20212;-66
2021/06/17 23:42:01;;;;;;;4.45;2.90;;;19.60;99.90;;;;;;5126409;29;20212;-65
2021/06/17 23:44:33;;;;;;;3.88;2.90;;;19.60;99.90;;;;;;5126567;29;20629;-66
2021/06/17 23:47:05;;;;;;;4.70;2.83;;;19.60;99.90;;;;;;5109276;29;20204;-65
2021/06/17 23:49:40;;;;;;;3.38;2.25;;;19.50;99.90;;;;;;5126254;29;20213;-65
2021/06/17 23:52:12;;;;;;;3.88;2.17;;;19.40;99.90;;;;;;5109496;29;20212;-64
2021/06/17 23:54:44;;;;;;;3.45;2.10;;;19.40;99.90;;;;;;5130349;29;20212;-65
2021/06/17 23:57:16;;;;;;;3.63;2.30;;;19.30;99.90;;;;;;5130088;29;20672;-66
2021/06/17 23:59:48;;;;;;;3.42;2.40;;;19.20;99.90;;;;;;5130337;29;20687;-64
